Time;durP1;ratioP1;P1;durP2;ratioP2;P2;SDS_P1;SDS_P2;PMS_P1;PMS_P2;Temp;Humidity;BMP_temperature;BMP_pressure;BME280_temperature;BME280_humidity;BME280_pressure;Samples;Min_cycle;Max_cycle;Signal;HPM_P1;HPM_P2
2021/05/02 00:02:16;;;;;;;2.65;1.60;;;17.90;65.90;;;;;;6244709;23;20007;-72
2021/05/02 00:04:43;;;;;;;3.72;2.00;;;17.90;65.30;;;;;;6244913;23;20000;-71
2021/05/02 00:07:09;;;;;;;1.75;1.33;;;17.90;65.90;;;;;;6245233;23;20062;-72
2021/05/02 00:09:35;;;;;;;2.67;1.70;;;17.90;66.50;;;;;;6245115;23;20075;-72
2021/05/02 00:12:00;;;;;;;3.17;2.00;;;17.90;66.30;;;;;;6245464;23;20034;-72
2021/05/02 00:14:27;;;;;;;3.20;1.90;;;17.80;65.60;;;;;;6245127;23;20031;-72
2021/05/02 00:16:53;;;;;;;2.35;1.60;;;17.80;65.90;;;;;;6244999;23;20004;-71
2021/05/02 00:19:20;;;;;;;3.33;1.60;;;17.70;65.80;;;;;;6244709;23;20004;-72
2021/05/02 00:21:47;;;;;;;2.35;1.50;;;17.70;66.10;;;;;;6243236;23;20437;-73
2021/05/02 00:24:13;;;;;;;4.03;1.92;;;17.70;66.80;;;;;;6245085;23;19997;-72
2021/05/02 00:26:39;;;;;;;3.53;1.85;;;17.70;67.70;;;;;;6244916;23;20022;-72
2021/05/02 00:29:08;;;;;;;2.97;2.17;;;17.70;66.60;;;;;;6244466;23;20035;-72
2021/05/02 00:31:34;;;;;;;4.30;2.33;;;17.60;65.80;;;;;;6244727;23;20051;-72
2021/05/02 00:34:00;;;;;;;2.85;2.00;;;17.60;65.10;;;;;;6245066;23;20009;-72
2021/05/02 00:36:26;;;;;;;2.35;1.83;;;17.60;64.20;;;;;;6245015;23;20008;-72
2021/05/02 00:38:52;;;;;;;3.00;1.98;;;17.60;64.80;;;;;;6243074;23;20453;-72
2021/05/02 00:41:29;;;;;;;4.10;2.05;;;17.60;63.80;;;;;;6244631;23;20093;-72
2021/05/02 00:44:04;;;;;;;3.40;2.05;;;17.50;64.40;;;;;;6244518;23;20085;-72
2021/05/02 00:46:41;;;;;;;3.33;1.80;;;17.50;64.00;;;;;;6242856;23;20019;-72
2021/05/02 00:49:19;;;;;;;3.95;2.00;;;17.50;63.20;;;;;;6244832;23;20010;-71
2021/05/02 00:51:56;;;;;;;2.42;1.60;;;17.40;63.30;;;;;;6244785;23;20004;-73
2021/05/02 00:54:43;;;;;;;4.07;2.35;;;17.40;62.80;;;;;;6244385;23;20010;-72
2021/05/02 00:57:14;;;;;;;3.22;1.95;;;17.40;63.10;;;;;;6242842;23;20004;-71
2021/05/02 01:00:01;;;;;;;2.33;1.80;;;17.40;63.10;;;;;;6244249;23;20352;-72
2021/05/02 01:02:29;;;;;;;2.75;1.55;;;17.40;63.40;;;;;;6242385;23;20001;-72
2021/05/02 01:04:59;;;;;;;3.17;1.92;;;17.30;63.20;;;;;;6244466;23;20061;-72
2021/05/02 01:07:33;;;;;;;3.05;2.03;;;17.30;61.80;;;;;;6244272;23;20023;-72
2021/05/02 01:10:02;;;;;;;3.20;2.13;;;17.20;61.40;;;;;;6244705;23;20004;-72
2021/05/02 01:12:30;;;;;;;3.00;1.83;;;17.30;61.70;;;;;;6244267;23;20067;-72
2021/05/02 01:14:58;;;;;;;3.25;2.03;;;17.20;60.90;;;;;;6244425;23;20432;-72
2021/05/02 01:17:25;;;;;;;4.70;2.28;;;17.20;61.00;;;;;;6244088;23;20008;-72
2021/05/02 01:19:51;;;;;;;4.63;2.03;;;17.20;60.70;;;;;;6244869;23;20008;-72
2021/05/02 01:22:19;;;;;;;3.00;1.98;;;17.10;60.40;;;;;;6242934;23;20000;-72
2021/05/02 01:24:52;;;;;;;4.00;2.15;;;17.10;60.00;;;;;;6244461;23;19996;-72
2021/05/02 01:27:31;;;;;;;2.35;1.83;;;17.10;60.40;;;;;;6244142;23;20019;-72
2021/05/02 01:29:59;;;;;;;2.45;1.77;;;17.10;60.30;;;;;;6243698;23;19997;-72
2021/05/02 01:32:27;;;;;;;2.47;1.75;;;17.10;60.10;;;;;;6244364;23;20007;-73
2021/05/02 01:34:53;;;;;;;3.30;2.28;;;17.10;60.20;;;;;;6244209;23;20425;-73
2021/05/02 01:37:20;;;;;;;3.00;2.10;;;17.10;61.30;;;;;;6244112;23;20004;-74
2021/05/02 01:39:47;;;;;;;4.03;1.83;;;17.00;61.20;;;;;;6244260;23;20059;-71
2021/05/02 01:42:13;;;;;;;3.25;2.28;;;17.00;60.60;;;;;;6243797;23;20035;-72
2021/05/02 01:44:39;;;;;;;2.97;2.13;;;17.00;54.70;;;;;;6243943;23;20007;-72
2021/05/02 01:47:10;;;;;;;3.20;2.10;;;17.00;54.10;;;;;;6244106;23;20016;-72
2021/05/02 01:49:47;;;;;;;2.67;1.92;;;17.00;55.10;;;;;;6244709;23;20020;-72
2021/05/02 01:52:15;;;;;;;4.72;2.45;;;17.00;53.90;;;;;;6243971;23;20000;-72
2021/05/02 01:54:42;;;;;;;2.38;1.80;;;17.00;55.90;;;;;;6243867;23;20004;-72
2021/05/02 01:57:08;;;;;;;2.72;1.90;;;17.00;53.50;;;;;;6244260;23;20099;-71
2021/05/02 01:59:36;;;;;;;3.33;2.13;;;16.90;53.70;;;;;;6243694;23;20333;-72
2021/05/02 02:02:03;;;;;;;4.45;2.15;;;16.90;53.30;;;;;;6244122;23;20011;-71
2021/05/02 02:04:32;;;;;;;3.10;1.90;;;16.90;52.30;;;;;;6243903;23;19996;-71
2021/05/02 02:06:58;;;;;;;2.95;1.70;;;16.80;52.10;;;;;;6243894;23;20008;-72
2021/05/02 02:09:24;;;;;;;3.90;2.20;;;16.80;51.50;;;;;;6243255;23;20065;-72
2021/05/02 02:11:52;;;;;;;2.88;1.80;;;16.80;51.60;;;;;;6243888;23;20441;-71
2021/05/02 02:14:18;;;;;;;3.38;2.30;;;16.70;51.80;;;;;;6243949;23;20441;-72
2021/05/02 02:16:45;;;;;;;3.88;1.92;;;16.70;51.10;;;;;;6243959;23;20023;-72
2021/05/02 02:19:10;;;;;;;4.53;2.15;;;16.70;51.40;;;;;;6243375;23;20527;-71
2021/05/02 02:21:36;;;;;;;3.22;2.00;;;16.70;51.30;;;;;;6243769;23;20000;-72
2021/05/02 02:24:03;;;;;;;3.05;2.03;;;16.70;51.10;;;;;;6243586;23;20004;-71
2021/05/02 02:26:42;;;;;;;2.45;2.03;;;16.70;51.20;;;;;;6243661;23;20071;-71
2021/05/02 02:29:12;;;;;;;5.35;2.45;;;16.70;51.20;;;;;;6244226;23;20352;-71
2021/05/02 02:31:41;;;;;;;2.67;2.03;;;16.60;50.90;;;;;;6243827;23;20003;-71
2021/05/02 02:34:06;;;;;;;3.15;2.20;;;16.60;50.80;;;;;;6243495;23;20525;-72
2021/05/02 02:36:33;;;;;;;4.10;2.00;;;16.60;50.70;;;;;;6243909;23;20385;-72
2021/05/02 02:38:59;;;;;;;3.85;2.20;;;16.60;50.80;;;;;;6243737;23;20341;-72
2021/05/02 02:41:27;;;;;;;3.30;2.08;;;16.60;50.50;;;;;;6244971;23;20110;-72
2021/05/02 02:43:57;;;;;;;3.85;2.22;;;16.60;50.60;;;;;;6245789;23;20486;-72
2021/05/02 02:46:24;;;;;;;3.05;2.00;;;16.50;50.50;;;;;;6245843;23;20071;-72
2021/05/02 02:48:58;;;;;;;3.00;2.00;;;16.50;50.40;;;;;;6245440;23;20015;-72
2021/05/02 02:51:26;;;;;;;5.05;2.50;;;16.60;50.50;;;;;;6245533;23;20003;-72
2021/05/02 02:53:55;;;;;;;4.43;2.17;;;16.50;50.50;;;;;;6244379;23;20005;-71
2021/05/02 02:56:21;;;;;;;3.15;2.20;;;16.60;50.50;;;;;;6245885;23;19996;-71
2021/05/02 02:58:53;;;;;;;2.78;2.03;;;16.50;50.40;;;;;;6245843;22;20019;-72
2021/05/02 03:01:18;;;;;;;5.53;2.40;;;16.50;50.50;;;;;;6245422;23;20046;-72
2021/05/02 03:03:46;;;;;;;4.18;2.38;;;16.50;50.40;;;;;;6245532;23;20390;-72
2021/05/02 03:06:12;;;;;;;3.42;2.38;;;16.40;50.40;;;;;;6246144;23;20000;-71
2021/05/02 03:08:40;;;;;;;3.83;2.45;;;16.40;50.40;;;;;;6245302;23;20019;-72
2021/05/02 03:11:07;;;;;;;3.35;2.00;;;16.40;50.40;;;;;;6245716;23;20480;-71
2021/05/02 03:13:33;;;;;;;3.53;2.08;;;16.40;50.40;;;;;;6243729;23;20014;-72
2021/05/02 03:16:03;;;;;;;3.53;2.03;;;16.40;50.30;;;;;;6245586;23;20046;-72
2021/05/02 03:18:35;;;;;;;4.18;2.10;;;16.40;50.30;;;;;;6245587;23;20047;-72
2021/05/02 03:21:06;;;;;;;3.88;2.28;;;16.40;50.40;;;;;;6245626;23;20000;-72
2021/05/02 03:23:43;;;;;;;2.42;2.00;;;16.40;50.40;;;;;;6245451;23;20042;-72
2021/05/02 03:26:10;;;;;;;2.75;1.88;;;16.40;50.40;;;;;;6245500;23;20087;-72
2021/05/02 03:28:45;;;;;;;3.88;1.90;;;16.40;50.30;;;;;;6244982;23;20551;-72
2021/05/02 03:31:12;;;;;;;3.53;2.10;;;16.30;50.40;;;;;;6245834;23;20000;-72
2021/05/02 03:33:46;;;;;;;2.53;1.80;;;16.40;50.40;;;;;;6244844;23;20385;-72
2021/05/02 03:36:17;;;;;;;2.45;1.77;;;16.40;50.50;;;;;;6245812;23;20007;-72
2021/05/02 03:38:51;;;;;;;2.55;1.95;;;16.30;50.40;;;;;;6245586;23;20075;-72
2021/05/02 03:41:19;;;;;;;3.83;2.20;;;16.30;50.40;;;;;;6243301;23;20008;-72
2021/05/02 03:43:45;;;;;;;2.72;1.75;;;16.30;50.50;;;;;;6245837;23;20000;-72
2021/05/02 03:46:24;;;;;;;4.15;1.98;;;16.30;50.40;;;;;;6245044;23;20000;-72
2021/05/02 03:48:59;;;;;;;2.58;1.77;;;16.30;50.40;;;;;;6245295;23;20083;-72
2021/05/02 03:51:27;;;;;;;3.53;1.90;;;16.30;50.50;;;;;;6245196;23;20067;-72
2021/05/02 03:53:54;;;;;;;3.17;1.98;;;16.30;50.50;;;;;;6244877;23;20004;-72
2021/05/02 03:56:40;;;;;;;3.22;2.22;;;16.30;50.50;;;;;;6245334;23;20012;-72
2021/05/02 03:59:20;;;;;;;3.13;1.98;;;16.20;50.50;;;;;;6245266;23;20004;-72
2021/05/02 04:02:02;;;;;;;4.18;1.83;;;16.30;50.50;;;;;;6243441;23;20332;-72
2021/05/02 04:04:30;;;;;;;3.13;1.90;;;16.30;50.50;;;;;;6245253;23;20001;-72
2021/05/02 04:07:00;;;;;;;2.75;1.73;;;16.30;50.50;;;;;;6245002;23;20035;-72
2021/05/02 04:09:27;;;;;;;2.67;1.80;;;16.30;50.50;;;;;;6244948;23;20000;-72
2021/05/02 04:11:53;;;;;;;1.98;1.50;;;16.20;50.50;;;;;;6245084;23;20429;-72
2021/05/02 04:14:19;;;;;;;3.30;1.70;;;16.20;50.50;;;;;;6244969;23;20075;-72
2021/05/02 04:16:55;;;;;;;4.63;1.80;;;16.20;50.50;;;;;;6245051;23;20401;-72
2021/05/02 04:19:21;;;;;;;2.30;1.63;;;16.20;50.60;;;;;;6245132;23;20008;-72
2021/05/02 04:21:46;;;;;;;3.05;1.83;;;16.20;50.60;;;;;;6245025;23;20011;-72
2021/05/02 04:24:12;;;;;;;3.20;2.00;;;16.20;50.60;;;;;;6244992;23;20326;-72
2021/05/02 04:26:42;;;;;;;2.42;1.60;;;16.20;50.60;;;;;;6245019;23;20572;-72
2021/05/02 04:29:08;;;;;;;2.45;1.65;;;16.20;50.60;;;;;;6244718;23;20054;-72
2021/05/02 04:31:33;;;;;;;2.40;1.67;;;16.20;50.70;;;;;;6244701;23;20004;-72
2021/05/02 04:33:59;;;;;;;3.05;1.50;;;16.20;50.70;;;;;;6244829;23;20004;-73
2021/05/02 04:36:24;;;;;;;2.58;1.88;;;16.20;50.70;;;;;;6244839;23;20000;-73
2021/05/02 04:38:50;;;;;;;4.18;1.92;;;16.10;50.70;;;;;;6244666;23;20034;-73
2021/05/02 04:41:16;;;;;;;2.72;1.85;;;16.20;50.80;;;;;;6245166;23;20322;-73
2021/05/02 04:43:41;;;;;;;2.47;1.70;;;16.10;50.80;;;;;;6244574;23;20000;-73
2021/05/02 04:46:07;;;;;;;3.60;1.95;;;16.10;50.70;;;;;;6244652;23;19996;-72
2021/05/02 04:48:32;;;;;;;1.90;1.30;;;16.20;50.70;;;;;;6244702;23;20349;-72
2021/05/02 04:50:58;;;;;;;2.53;1.70;;;16.20;50.70;;;;;;6244717;23;19997;-72
2021/05/02 04:53:24;;;;;;;4.03;2.08;;;16.10;50.70;;;;;;6242893;23;20031;-72
2021/05/02 04:55:49;;;;;;;2.42;1.55;;;16.10;50.70;;;;;;6245281;23;20332;-72
2021/05/02 04:58:15;;;;;;;2.40;1.55;;;16.10;50.80;;;;;;6245038;23;20341;-72
2021/05/02 05:00:41;;;;;;;3.25;1.88;;;16.10;50.80;;;;;;6244040;23;20428;-72
2021/05/02 05:03:07;;;;;;;3.13;2.05;;;16.10;50.80;;;;;;6244466;23;20014;-72
2021/05/02 05:05:32;;;;;;;3.33;1.50;;;16.10;50.80;;;;;;6244153;23;20440;-72
2021/05/02 05:07:58;;;;;;;2.85;1.58;;;16.10;50.80;;;;;;6244530;23;20083;-72
2021/05/02 05:10:24;;;;;;;3.63;2.05;;;16.10;50.90;;;;;;6244437;23;20494;-72
2021/05/02 05:12:50;;;;;;;3.85;1.77;;;16.10;50.90;;;;;;6243195;23;20004;-71
2021/05/02 05:15:15;;;;;;;3.20;1.88;;;16.10;50.90;;;;;;6244705;23;20114;-71
2021/05/02 05:17:41;;;;;;;2.58;1.63;;;16.10;50.90;;;;;;6244409;23;20348;-71
2021/05/02 05:20:07;;;;;;;2.00;1.55;;;16.10;50.90;;;;;;6244057;23;20479;-71
2021/05/02 05:22:33;;;;;;;4.47;2.00;;;16.10;51.10;;;;;;6244198;23;20004;-72
2021/05/02 05:24:59;;;;;;;2.05;1.40;;;16.10;51.00;;;;;;6243998;23;20028;-72
2021/05/02 05:27:25;;;;;;;3.05;2.05;;;16.10;51.00;;;;;;6243707;23;20043;-72
2021/05/02 05:29:51;;;;;;;2.83;1.63;;;16.00;51.00;;;;;;6244127;23;20058;-71
2021/05/02 05:32:17;;;;;;;4.70;2.53;;;16.00;51.00;;;;;;6244919;23;20004;-72
2021/05/02 05:34:42;;;;;;;2.85;1.60;;;16.00;51.10;;;;;;6243879;23;20008;-72
2021/05/02 05:37:08;;;;;;;4.43;2.10;;;16.00;51.10;;;;;;6244487;23;20436;-72
2021/05/02 05:39:34;;;;;;;2.70;1.55;;;16.00;51.10;;;;;;6243847;23;20008;-72
2021/05/02 05:42:00;;;;;;;2.92;1.83;;;16.00;51.70;;;;;;6243943;22;20004;-72
2021/05/02 05:44:26;;;;;;;3.97;2.05;;;16.00;51.10;;;;;;6244179;23;20011;-72
2021/05/02 05:46:51;;;;;;;4.78;2.22;;;16.00;51.10;;;;;;6244399;23;20282;-72
2021/05/02 05:49:19;;;;;;;2.83;1.50;;;16.00;51.10;;;;;;6244217;23;20004;-72
2021/05/02 05:51:51;;;;;;;2.25;1.30;;;16.00;51.10;;;;;;6244144;23;20333;-72
2021/05/02 05:54:17;;;;;;;4.00;1.75;;;16.00;51.10;;;;;;6243709;23;20027;-72
2021/05/02 05:56:43;;;;;;;2.92;1.67;;;16.00;51.20;;;;;;6243718;23;20436;-73
2021/05/02 05:59:08;;;;;;;2.83;1.65;;;16.00;51.20;;;;;;6244201;23;20023;-72
2021/05/02 06:01:34;;;;;;;3.20;1.88;;;16.00;51.20;;;;;;6243699;23;20004;-72
2021/05/02 06:04:00;;;;;;;2.45;1.70;;;16.00;51.20;;;;;;6242431;23;20099;-72
2021/05/02 06:06:32;;;;;;;2.70;1.98;;;16.00;51.20;;;;;;6243959;23;19996;-72
2021/05/02 06:08:57;;;;;;;2.60;1.75;;;16.00;51.20;;;;;;6243795;23;20095;-72
2021/05/02 06:11:23;;;;;;;1.75;1.20;;;16.00;51.20;;;;;;6242751;23;20078;-72
2021/05/02 06:13:48;;;;;;;3.55;1.63;;;16.00;51.20;;;;;;6244266;23;20000;-72
2021/05/02 06:16:14;;;;;;;3.70;1.88;;;16.00;51.30;;;;;;6243566;23;20502;-72
2021/05/02 06:18:40;;;;;;;2.75;1.77;;;16.00;51.20;;;;;;6242252;23;20099;-72
2021/05/02 06:21:05;;;;;;;3.38;1.80;;;16.00;51.30;;;;;;6243787;23;20413;-71
2021/05/02 06:23:31;;;;;;;3.03;1.88;;;16.00;51.30;;;;;;6242186;23;20004;-72
2021/05/02 06:25:56;;;;;;;3.00;2.00;;;16.00;51.90;;;;;;6243663;23;20030;-72
2021/05/02 06:28:22;;;;;;;2.78;1.90;;;16.00;51.30;;;;;;6244214;23;20035;-72
2021/05/02 06:30:48;;;;;;;3.13;2.08;;;15.90;51.30;;;;;;6243239;23;20000;-72
2021/05/02 06:33:13;;;;;;;2.00;1.30;;;15.90;51.30;;;;;;6243637;23;19996;-72
2021/05/02 06:35:39;;;;;;;4.90;1.83;;;16.00;51.40;;;;;;6243598;23;20008;-72
2021/05/02 06:38:04;;;;;;;2.95;1.52;;;15.90;51.40;;;;;;6243350;23;20043;-72
2021/05/02 06:40:30;;;;;;;5.25;1.67;;;16.00;51.40;;;;;;6243815;23;20008;-72
2021/05/02 06:42:56;;;;;;;1.95;1.35;;;16.00;51.70;;;;;;6243596;23;20027;-72
2021/05/02 06:45:21;;;;;;;3.92;1.80;;;16.00;51.80;;;;;;6243167;23;20338;-71
2021/05/02 06:47:47;;;;;;;3.40;1.85;;;16.10;52.00;;;;;;6243729;23;20012;-71
2021/05/02 06:50:14;;;;;;;6.20;4.50;;;16.10;52.10;;;;;;6243407;23;19996;-73
2021/05/02 06:52:40;;;;;;;5.18;3.65;;;16.20;51.90;;;;;;6242642;23;20090;-72
2021/05/02 06:55:06;;;;;;;5.43;3.22;;;16.40;51.70;;;;;;6242132;23;19996;-72
2021/05/02 06:57:32;;;;;;;3.55;2.63;;;16.50;51.40;;;;;;6242677;23;20368;-72
2021/05/02 06:59:58;;;;;;;6.25;2.78;;;16.60;51.40;;;;;;6241912;23;20004;-72
2021/05/02 07:02:24;;;;;;;5.80;2.33;;;16.80;51.40;;;;;;6242865;22;20011;-72
2021/05/02 07:04:49;;;;;;;5.15;2.53;;;16.90;51.30;;;;;;6242388;23;20464;-72
2021/05/02 07:07:15;;;;;;;5.00;2.53;;;17.10;74.90;;;;;;6242079;23;20107;-73
2021/05/02 07:09:40;;;;;;;4.60;2.53;;;17.10;51.20;;;;;;6242877;23;20027;-71
2021/05/02 07:12:06;;;;;;;4.22;2.05;;;17.30;51.30;;;;;;6243867;23;19996;-72
2021/05/02 07:14:32;;;;;;;3.40;1.88;;;17.40;51.40;;;;;;6242285;23;20078;-73
2021/05/02 07:16:58;;;;;;;6.72;2.53;;;17.50;51.40;;;;;;6242421;23;20004;-73
2021/05/02 07:19:24;;;;;;;4.22;1.67;;;17.50;51.60;;;;;;6242546;23;20506;-73
2021/05/02 07:21:57;;;;;;;5.32;2.33;;;17.70;51.40;;;;;;6242264;23;20004;-72
2021/05/02 07:24:23;;;;;;;5.40;2.10;;;17.70;51.10;;;;;;6242584;23;20008;-72
2021/05/02 07:26:48;;;;;;;3.33;2.20;;;17.70;50.90;;;;;;6242484;23;20079;-72
2021/05/02 07:29:14;;;;;;;4.95;2.00;;;17.80;50.80;;;;;;6244397;23;20051;-72
2021/05/02 07:31:39;;;;;;;4.78;2.10;;;17.90;50.80;;;;;;6244066;23;20007;-72
2021/05/02 07:34:05;;;;;;;4.15;2.00;;;18.00;50.60;;;;;;6244962;23;20337;-71
2021/05/02 07:36:31;;;;;;;5.80;1.80;;;18.00;50.70;;;;;;6245286;23;20318;-72
2021/05/02 07:38:57;;;;;;;4.22;1.50;;;18.10;50.70;;;;;;6245553;23;20038;-73
2021/05/02 07:41:23;;;;;;;7.45;1.95;;;18.20;50.50;;;;;;6245192;23;20011;-73
2021/05/02 07:43:48;;;;;;;3.25;1.70;;;18.30;50.40;;;;;;6243001;23;20000;-73
2021/05/02 07:46:14;;;;;;;3.20;1.40;;;18.30;50.20;;;;;;6237036;23;20459;-73
2021/05/02 07:48:40;;;;;;;2.65;1.60;;;18.40;50.10;;;;;;6244210;23;20020;-73
2021/05/02 07:51:05;;;;;;;3.30;1.67;;;18.40;50.00;;;;;;6244817;23;20341;-73
2021/05/02 07:53:31;;;;;;;4.13;1.70;;;18.50;49.80;;;;;;6244935;23;20448;-73
2021/05/02 07:55:57;;;;;;;5.22;1.40;;;18.50;49.20;;;;;;6244597;23;20429;-73
2021/05/02 07:58:23;;;;;;;3.13;1.20;;;18.60;49.70;;;;;;6245174;23;20079;-72
2021/05/02 08:00:48;;;;;;;3.55;1.33;;;18.70;49.50;;;;;;6243985;23;20018;-72
2021/05/02 08:03:14;;;;;;;4.10;1.35;;;18.80;49.50;;;;;;6244513;23;20000;-72
2021/05/02 08:05:40;;;;;;;6.18;1.30;;;18.80;49.60;;;;;;6244479;22;20004;-72
2021/05/02 08:08:06;;;;;;;3.15;1.20;;;18.80;49.60;;;;;;6243812;23;20075;-73
2021/05/02 08:10:31;;;;;;;3.50;1.20;;;18.90;49.60;;;;;;6242464;23;20074;-73
2021/05/02 08:12:57;;;;;;;4.47;1.08;;;18.90;49.60;;;;;;6243251;23;20450;-73
2021/05/02 08:15:23;;;;;;;2.80;1.17;;;19.00;49.20;;;;;;6244675;23;20012;-72
2021/05/02 08:17:49;;;;;;;3.03;1.40;;;19.10;49.10;;;;;;6244348;23;20079;-73
2021/05/02 08:20:15;;;;;;;4.55;1.05;;;19.10;48.80;;;;;;6244442;23;20437;-73
2021/05/02 08:22:41;;;;;;;5.22;1.63;;;19.20;48.70;;;;;;6244507;23;20004;-72
2021/05/02 08:25:08;;;;;;;3.38;1.30;;;19.20;48.60;;;;;;6244495;23;20071;-72
2021/05/02 08:27:34;;;;;;;2.10;1.10;;;19.20;48.50;;;;;;6242626;23;20337;-72
2021/05/02 08:30:00;;;;;;;4.22;0.90;;;19.20;48.50;;;;;;6244302;23;20000;-72
2021/05/02 08:32:26;;;;;;;3.25;1.08;;;19.20;48.40;;;;;;6244622;23;20000;-73
2021/05/02 08:34:52;;;;;;;2.45;1.13;;;19.30;48.50;;;;;;6244682;23;20004;-72
2021/05/02 08:37:18;;;;;;;2.90;0.90;;;19.30;48.40;;;;;;6243727;23;20328;-72
2021/05/02 08:39:44;;;;;;;3.55;1.45;;;19.30;48.30;;;;;;6244001;23;20054;-73
2021/05/02 08:42:09;;;;;;;3.50;1.20;;;19.30;48.40;;;;;;6242533;23;20015;-72
2021/05/02 08:44:36;;;;;;;4.65;1.27;;;19.30;48.50;;;;;;6243246;23;20038;-72
2021/05/02 08:47:03;;;;;;;9.45;1.40;;;19.30;48.70;;;;;;6243009;23;20000;-73
2021/05/02 08:49:28;;;;;;;7.15;1.40;;;19.30;50.50;;;;;;6243360;23;20011;-73
2021/05/02 08:51:54;;;;;;;4.13;1.65;;;19.40;48.90;;;;;;6243253;23;19996;-73
2021/05/02 08:54:28;;;;;;;3.28;0.95;;;19.40;48.70;;;;;;6243174;23;20008;-79
2021/05/02 08:56:58;;;;;;;6.20;1.77;;;19.40;49.20;;;;;;6242222;23;20004;-80
2021/05/02 08:59:24;;;;;;;5.25;1.17;;;19.40;49.00;;;;;;6243227;23;20004;-80
2021/05/02 09:01:50;;;;;;;5.95;1.08;;;19.30;49.30;;;;;;6243140;23;20490;-78
2021/05/02 09:04:16;;;;;;;4.65;1.35;;;19.40;49.70;;;;;;6242650;23;20441;-79
2021/05/02 09:06:42;;;;;;;2.08;0.95;;;19.40;49.60;;;;;;6242998;23;19996;-80
2021/05/02 09:09:11;;;;;;;4.50;1.23;;;19.50;49.60;;;;;;6242872;23;20012;-78
2021/05/02 09:11:40;;;;;;;7.90;1.27;;;19.50;49.60;;;;;;6243143;23;20000;-83
2021/05/02 09:14:10;;;;;;;7.75;1.92;;;19.60;49.50;;;;;;6243701;23;20011;-81
2021/05/02 09:16:50;;;;;;;8.60;1.00;;;19.60;49.40;;;;;;6244352;23;19996;-81
2021/05/02 09:19:17;;;;;;;3.65;1.00;;;19.60;49.40;;;;;;6244240;23;20000;-79
2021/05/02 09:21:43;;;;;;;2.67;1.13;;;19.60;49.40;;;;;;6243951;23;20004;-80
2021/05/02 09:24:33;;;;;;;5.57;1.00;;;19.70;49.70;;;;;;6242960;23;20000;-81
2021/05/02 09:27:10;;;;;;;2.55;1.10;;;19.70;49.40;;;;;;6244361;23;20008;-83
2021/05/02 09:29:38;;;;;;;5.18;1.10;;;19.70;49.30;;;;;;6243772;23;20070;-81
2021/05/02 09:32:06;;;;;;;3.03;1.00;;;19.80;49.40;;;;;;6243584;23;20004;-81
2021/05/02 09:34:32;;;;;;;3.05;1.23;;;19.80;49.20;;;;;;6244055;23;20004;-80
2021/05/02 09:37:07;;;;;;;4.55;1.00;;;19.90;49.20;;;;;;6244476;23;20441;-80
2021/05/02 09:39:40;;;;;;;1.77;0.90;;;19.90;49.10;;;;;;6244299;23;20344;-81
2021/05/02 09:42:17;;;;;;;2.72;1.10;;;19.90;49.00;;;;;;6244496;23;20007;-80
2021/05/02 09:44:45;;;;;;;3.22;1.10;;;20.00;48.90;;;;;;6244319;23;20095;-80
2021/05/02 09:47:25;;;;;;;2.97;1.23;;;20.00;48.80;;;;;;6243736;23;20087;-83
2021/05/02 09:50:10;;;;;;;6.82;0.93;;;20.10;48.80;;;;;;6243584;23;20004;-82
2021/05/02 09:53:01;;;;;;;3.88;0.88;;;20.10;48.70;;;;;;6242308;23;20000;-78
2021/05/02 09:55:41;;;;;;;4.47;0.93;;;20.20;48.60;;;;;;6244184;23;20000;-82
2021/05/02 09:58:13;;;;;;;2.00;0.80;;;20.20;48.40;;;;;;6243498;23;20004;-82
2021/05/02 10:00:40;;;;;;;3.42;1.05;;;20.30;48.40;;;;;;6243383;23;20046;-82
2021/05/02 10:03:26;;;;;;;3.65;1.30;;;20.30;48.20;;;;;;6244283;23;20004;-80
2021/05/02 10:05:59;;;;;;;4.47;1.20;;;20.30;48.00;;;;;;6243408;22;20004;-78
2021/05/02 10:08:26;;;;;;;5.88;1.33;;;20.30;48.00;;;;;;6243081;23;20012;-77
2021/05/02 10:10:54;;;;;;;3.00;1.35;;;20.30;48.00;;;;;;6243079;23;20004;-81
2021/05/02 10:13:20;;;;;;;5.10;1.50;;;20.40;48.00;;;;;;6243195;23;20286;-78
2021/05/02 10:15:46;;;;;;;5.07;1.23;;;20.40;47.90;;;;;;6243616;23;20075;-76
2021/05/02 10:18:12;;;;;;;3.15;1.20;;;20.40;47.80;;;;;;6243172;23;20039;-79
2021/05/02 10:20:37;;;;;;;3.15;1.00;;;20.40;47.80;;;;;;6243495;23;20429;-82
2021/05/02 10:23:04;;;;;;;2.42;0.90;;;20.50;47.70;;;;;;6243166;23;20059;-83
2021/05/02 10:25:30;;;;;;;3.90;0.98;;;20.50;47.70;;;;;;6243509;23;20007;-83
2021/05/02 10:27:56;;;;;;;1.67;0.80;;;20.50;47.60;;;;;;6243186;23;20009;-80
2021/05/02 10:30:28;;;;;;;3.97;0.88;;;20.50;47.60;;;;;;6243434;23;20556;-79
2021/05/02 10:33:04;;;;;;;3.10;1.23;;;20.60;47.60;;;;;;6243501;23;20000;-80
2021/05/02 10:35:54;;;;;;;2.00;1.10;;;20.50;47.50;;;;;;6242952;23;20000;-78
2021/05/02 10:38:22;;;;;;;3.65;0.82;;;20.60;47.40;;;;;;6242827;23;19996;-80
2021/05/02 10:40:48;;;;;;;2.47;0.88;;;20.60;47.30;;;;;;6242641;23;20376;-80
2021/05/02 10:43:28;;;;;;;2.30;0.80;;;20.60;47.30;;;;;;6242403;23;20015;-79
2021/05/02 10:45:55;;;;;;;5.93;1.13;;;20.70;47.30;;;;;;6242387;23;20054;-81
2021/05/02 10:48:23;;;;;;;2.45;0.95;;;20.70;47.40;;;;;;6242335;23;20348;-81
2021/05/02 10:50:50;;;;;;;2.35;1.00;;;20.80;47.20;;;;;;6242654;23;20053;-81
2021/05/02 10:53:18;;;;;;;4.07;1.15;;;20.80;47.20;;;;;;6242979;23;20008;-80
2021/05/02 10:55:49;;;;;;;3.47;1.00;;;20.80;47.20;;;;;;6242419;23;20003;-82
2021/05/02 10:58:24;;;;;;;1.58;0.93;;;20.80;47.00;;;;;;6241961;23;20034;-87
2021/05/02 11:01:00;;;;;;;1.80;0.88;;;20.80;47.20;;;;;;6243669;23;20433;-80
2021/05/02 11:03:35;;;;;;;1.85;0.80;;;20.80;47.20;;;;;;6245619;23;20087;-85
2021/05/02 11:06:34;;;;;;;3.90;1.10;;;20.80;47.00;;;;;;6246913;23;19996;-82
2021/05/02 11:09:00;;;;;;;1.48;0.80;;;20.80;46.70;;;;;;6246266;23;20599;-86
2021/05/02 11:11:32;;;;;;;3.30;1.38;;;20.80;47.00;;;;;;6245630;23;20440;-83
2021/05/02 11:14:10;;;;;;;7.72;3.35;;;20.80;46.90;;;;;;6245023;23;20000;-78
2021/05/02 11:16:44;;;;;;;13.88;6.65;;;20.80;46.90;;;;;;6245253;23;20011;-82
2021/05/02 11:19:11;;;;;;;16.80;8.05;;;20.80;46.60;;;;;;6245324;23;20027;-80
2021/05/02 11:21:46;;;;;;;14.40;7.55;;;20.80;47.10;;;;;;6244415;23;20431;-81
2021/05/02 11:24:13;;;;;;;24.57;11.97;;;20.80;47.10;;;;;;6245184;23;20020;-83
2021/05/02 11:32:29;;;;;;;21.08;12.10;;;20.70;46.90;;;;;;6245200;23;20381;-82
2021/05/02 11:35:01;;;;;;;18.75;11.65;;;20.60;46.70;;;;;;6245112;23;20050;-81
2021/05/02 11:37:45;;;;;;;22.00;13.32;;;20.60;47.30;;;;;;6246439;23;20038;-81
2021/05/02 11:40:32;;;;;;;21.60;12.68;;;20.50;47.70;;;;;;6243351;23;20448;-80
2021/05/02 11:42:57;;;;;;;19.05;12.77;;;20.60;47.50;;;;;;6245181;23;20007;-80
2021/05/02 11:45:25;;;;;;;18.05;11.38;;;20.60;47.40;;;;;;6245006;23;20000;-78
2021/05/02 11:47:52;;;;;;;18.23;11.15;;;20.60;47.30;;;;;;6244872;23;20444;-78
2021/05/02 11:50:19;;;;;;;20.70;10.35;;;20.60;47.30;;;;;;6244910;23;20007;-77
2021/05/02 11:52:44;;;;;;;17.20;10.27;;;20.60;47.40;;;;;;6244910;23;20310;-77
2021/05/02 11:55:26;;;;;;;15.82;9.27;;;20.60;47.50;;;;;;6244884;23;20007;-77
2021/05/02 11:57:53;;;;;;;19.63;10.05;;;20.60;48.40;;;;;;6244274;23;19996;-79
2021/05/02 12:00:32;;;;;;;17.25;9.13;;;20.60;47.80;;;;;;6244179;23;20007;-79
2021/05/02 12:02:57;;;;;;;15.70;9.80;;;20.60;47.90;;;;;;6244525;23;20046;-79
2021/05/02 12:05:23;;;;;;;17.80;9.48;;;20.70;48.60;;;;;;6242734;23;20036;-79
2021/05/02 12:08:13;;;;;;;18.75;9.98;;;20.60;48.70;;;;;;6244267;23;20340;-80
2021/05/02 12:10:39;;;;;;;14.82;8.95;;;20.60;49.40;;;;;;6244900;23;20058;-78
2021/05/02 12:13:05;;;;;;;13.88;8.52;;;20.60;48.90;;;;;;6244753;23;20051;-79
2021/05/02 12:15:33;;;;;;;11.60;7.53;;;20.60;48.50;;;;;;6245163;23;20008;-80
2021/05/02 12:17:59;;;;;;;12.65;7.47;;;20.50;48.80;;;;;;6244703;23;20004;-78
2021/05/02 12:20:26;;;;;;;14.02;7.47;;;20.50;48.70;;;;;;6244846;23;20003;-79
2021/05/02 12:22:52;;;;;;;14.10;7.88;;;20.40;48.90;;;;;;6244294;23;20004;-78
2021/05/02 12:25:18;;;;;;;12.98;6.63;;;20.30;49.00;;;;;;6244643;23;20331;-79
2021/05/02 12:28:13;;;;;;;11.75;7.40;;;20.20;48.50;;;;;;6244694;23;20020;-75
2021/05/02 12:30:39;;;;;;;15.93;6.00;;;20.20;48.60;;;;;;6231224;23;20004;-76
2021/05/02 12:33:05;;;;;;;12.73;6.75;;;20.10;48.90;;;;;;6245049;23;20011;-77
2021/05/02 12:35:30;;;;;;;10.63;6.38;;;20.20;48.70;;;;;;6244608;23;20493;-78
2021/05/02 12:37:56;;;;;;;10.57;5.43;;;20.30;48.40;;;;;;6244321;23;20007;-78
2021/05/02 12:40:22;;;;;;;11.60;5.97;;;20.30;48.50;;;;;;6244470;23;20000;-77
2021/05/02 12:42:47;;;;;;;9.18;5.75;;;20.30;48.40;;;;;;6244763;23;20432;-78
2021/05/02 12:45:13;;;;;;;7.78;5.22;;;20.30;48.20;;;;;;6244410;22;20079;-79
2021/05/02 12:47:44;;;;;;;10.98;5.20;;;20.30;48.00;;;;;;6243735;23;20011;-75
2021/05/02 12:50:12;;;;;;;10.43;6.15;;;20.20;48.50;;;;;;6244315;23;20411;-77
2021/05/02 12:52:40;;;;;;;18.15;5.35;;;20.20;48.30;;;;;;6243250;23;20028;-74
2021/05/02 12:55:28;;;;;;;11.10;4.93;;;20.10;49.00;;;;;;6244927;23;20004;-76
2021/05/02 12:57:59;;;;;;;10.85;4.93;;;20.00;49.00;;;;;;6244642;23;20004;-77
2021/05/02 13:00:30;;;;;;;9.77;5.32;;;19.90;48.90;;;;;;6244257;23;20004;-79